Time;durP1;ratioP1;P1;durP2;ratioP2;P2;SDS_P1;SDS_P2;PMS_P1;PMS_P2;Temp;Humidity;BMP_temperature;BMP_pressure;BME280_temperature;BME280_humidity;BME280_pressure;Samples;Min_cycle;Max_cycle;Signal;HPM_P1;HPM_P2
2023/04/20 00:00:11;;;;;;;7.32;4.95;;;;;;;10.49;100.00;100380.53;5068672;28;20024;-69
2023/04/20 00:02:37;;;;;;;8.23;5.25;;;;;;;10.48;100.00;100371.88;5060650;28;20029;-69
2023/04/20 00:05:06;;;;;;;7.30;5.40;;;;;;;10.46;100.00;100371.22;5064013;28;20116;-71
2023/04/20 00:07:32;;;;;;;7.88;4.80;;;;;;;10.41;100.00;100370.81;5060437;28;20033;-70
2023/04/20 00:09:58;;;;;;;7.30;5.00;;;;;;;10.43;100.00;100373.28;5064050;28;20032;-69
2023/04/20 00:12:23;;;;;;;7.50;5.43;;;;;;;10.49;100.00;100362.28;5065459;28;20039;-69
2023/04/20 00:14:49;;;;;;;10.32;5.55;;;;;;;10.48;100.00;100366.69;5064404;28;20078;-69
2023/04/20 00:17:14;;;;;;;10.18;5.47;;;;;;;10.47;100.00;100361.63;5062966;28;20104;-69
2023/04/20 00:19:40;;;;;;;10.50;5.95;;;;;;;10.49;100.00;100357.91;5072481;28;20115;-69
2023/04/20 00:22:05;;;;;;;9.13;5.75;;;;;;;10.49;100.00;100351.88;5061743;28;20052;-69
2023/04/20 00:24:30;;;;;;;7.97;5.25;;;;;;;10.50;100.00;100350.91;5066611;28;20075;-69
2023/04/20 00:26:56;;;;;;;10.88;5.63;;;;;;;10.52;100.00;100349.78;5067551;28;20045;-70
2023/04/20 00:29:21;;;;;;;9.30;5.55;;;;;;;10.53;100.00;100343.63;5071400;28;20111;-69
2023/04/20 00:31:47;;;;;;;10.73;5.72;;;;;;;10.52;100.00;100333.34;5066972;28;20036;-70
2023/04/20 00:34:12;;;;;;;12.50;6.57;;;;;;;10.49;100.00;100341.44;5077760;28;20074;-69
2023/04/20 00:36:38;;;;;;;8.85;5.80;;;;;;;10.46;100.00;100341.75;5073689;28;20024;-69
2023/04/20 00:39:04;;;;;;;10.05;6.10;;;;;;;10.44;100.00;100335.84;5062219;28;20072;-69
2023/04/20 00:41:30;;;;;;;6.43;4.95;;;;;;;10.41;100.00;100336.97;5068790;28;20037;-69
2023/04/20 00:43:55;;;;;;;7.72;5.35;;;;;;;10.37;100.00;100337.44;5065033;28;20033;-69
2023/04/20 00:46:21;;;;;;;9.73;5.78;;;;;;;10.39;100.00;100332.91;5070263;28;20040;-69
2023/04/20 00:48:48;;;;;;;12.52;6.25;;;;;;;10.37;100.00;100329.63;5064603;28;20036;-69
2023/04/20 00:51:14;;;;;;;8.60;5.70;;;;;;;10.36;100.00;100323.59;5069157;28;20047;-69
2023/04/20 00:53:40;;;;;;;9.35;5.82;;;;;;;10.37;100.00;100321.81;5062359;28;20040;-69
2023/04/20 00:56:06;;;;;;;13.07;6.18;;;;;;;10.35;100.00;100323.75;5070708;28;20417;-69
2023/04/20 00:58:32;;;;;;;9.07;5.82;;;;;;;10.33;100.00;100321.28;5064331;28;20054;-69
2023/04/20 01:00:58;;;;;;;7.72;5.68;;;;;;;10.32;100.00;100318.81;5073141;28;20496;-69
2023/04/20 01:03:23;;;;;;;11.52;6.05;;;;;;;10.33;100.00;100326.50;5067604;28;20064;-69
2023/04/20 01:05:49;;;;;;;11.45;5.60;;;;;;;10.30;100.00;100327.59;5050970;28;20064;-69
2023/04/20 01:08:14;;;;;;;9.82;5.68;;;;;;;10.29;100.00;100319.94;5061615;28;20430;-69
2023/04/20 01:10:40;;;;;;;11.02;5.25;;;;;;;10.24;100.00;100315.16;5067973;28;20041;-69
2023/04/20 01:13:05;;;;;;;9.75;5.88;;;;;;;10.28;100.00;100318.28;5071901;28;20029;-69
2023/04/20 01:15:30;;;;;;;7.85;5.55;;;;;;;10.26;100.00;100320.22;5058989;28;20089;-69
2023/04/20 01:17:56;;;;;;;10.07;5.38;;;;;;;10.25;100.00;100324.63;5067410;28;20036;-69
2023/04/20 01:20:22;;;;;;;9.50;5.18;;;;;;;10.22;100.00;100313.66;5068408;28;20033;-69
2023/04/20 01:22:53;;;;;;;9.23;5.32;;;;;;;10.20;100.00;100321.63;5071768;28;20059;-69
2023/04/20 01:25:19;;;;;;;7.97;5.68;;;;;;;10.11;100.00;100311.22;5058965;28;20391;-69
2023/04/20 01:27:45;;;;;;;8.77;6.47;;;;;;;10.12;100.00;100313.69;5059055;28;20477;-68
2023/04/20 01:30:11;;;;;;;11.57;6.10;;;;;;;10.02;100.00;100312.91;5066479;28;20111;-68
2023/04/20 01:32:37;;;;;;;7.82;5.38;;;;;;;10.04;100.00;100315.38;5060748;28;20025;-69
2023/04/20 01:35:03;;;;;;;9.25;6.30;;;;;;;10.06;100.00;100319.47;5064409;28;20040;-69
2023/04/20 01:37:29;;;;;;;10.70;6.88;;;;;;;10.05;100.00;100312.63;5060793;28;20047;-69
2023/04/20 01:39:55;;;;;;;8.63;6.05;;;;;;;10.02;100.00;100318.13;5065874;28;20037;-69
2023/04/20 01:42:21;;;;;;;9.15;6.60;;;;;;;9.95;100.00;100307.44;5064369;28;20024;-69
2023/04/20 01:44:46;;;;;;;10.43;6.45;;;;;;;9.91;100.00;100311.34;5058002;28;20437;-69
2023/04/20 01:47:12;;;;;;;9.52;6.45;;;;;;;9.90;100.00;100308.88;5057797;28;20037;-69
2023/04/20 01:49:37;;;;;;;11.25;7.05;;;;;;;9.90;100.00;100308.88;5067182;28;20069;-69
2023/04/20 01:52:03;;;;;;;10.38;7.57;;;;;;;9.88;100.00;100305.59;5069154;28;20028;-69
2023/04/20 01:54:28;;;;;;;11.20;6.93;;;;;;;9.89;100.00;100305.44;5058138;28;20036;-69
2023/04/20 01:56:54;;;;;;;12.98;7.57;;;;;;;9.91;100.00;100310.50;5067885;28;20093;-69
2023/04/20 01:59:19;;;;;;;22.83;7.85;;;;;;;9.93;100.00;100303.34;5066151;28;20119;-69
2023/04/20 02:01:44;;;;;;;11.63;7.70;;;;;;;9.95;100.00;100302.25;5064603;28;20062;-69
2023/04/20 02:04:10;;;;;;;19.30;8.88;;;;;;;9.98;100.00;100306.34;5070831;28;20044;-69
2023/04/20 02:06:35;;;;;;;13.75;7.82;;;;;;;9.96;100.00;100303.06;5064416;28;20118;-69
2023/04/20 02:09:01;;;;;;;13.10;7.50;;;;;;;9.96;100.00;100303.06;5063352;28;20021;-69
2023/04/20 02:11:26;;;;;;;14.93;7.55;;;;;;;9.98;100.00;100306.34;5065265;28;20052;-69
2023/04/20 02:13:52;;;;;;;14.68;7.72;;;;;;;9.94;100.00;100305.00;5065571;28;20035;-69
2023/04/20 02:16:20;;;;;;;12.65;8.18;;;;;;;9.94;100.00;100291.97;5062382;28;20029;-69
2023/04/20 02:18:46;;;;;;;13.40;8.27;;;;;;;9.95;100.00;100310.06;5063396;28;20032;-69
2023/04/20 02:21:11;;;;;;;11.00;8.05;;;;;;;9.93;100.00;100301.56;5063658;28;20041;-69
2023/04/20 02:23:37;;;;;;;11.15;8.07;;;;;;;9.98;100.00;100301.97;5060249;28;20037;-69
2023/04/20 02:26:02;;;;;;;11.98;8.25;;;;;;;9.99;100.00;100306.19;5066403;28;20496;-69
2023/04/20 02:28:28;;;;;;;12.50;7.47;;;;;;;10.02;100.00;100307.69;5065934;28;20071;-69
2023/04/20 02:30:53;;;;;;;12.48;8.02;;;;;;;10.02;100.00;100297.28;5064004;28;20052;-69
2023/04/20 02:33:20;;;;;;;15.18;8.00;;;;;;;10.02;100.00;100299.88;5067621;28;20067;-69
2023/04/20 02:35:46;;;;;;;11.10;7.63;;;;;;;10.01;100.00;100303.47;5067537;28;20039;-69
2023/04/20 02:38:11;;;;;;;10.52;8.10;;;;;;;9.99;100.00;100303.59;5064426;28;20029;-69
2023/04/20 02:40:37;;;;;;;20.25;8.35;;;;;;;10.02;100.00;100301.69;5060203;28;20464;-69
2023/04/20 02:43:02;;;;;;;13.30;7.38;;;;;;;10.02;100.00;100302.50;5064925;28;20032;-69
2023/04/20 02:45:29;;;;;;;12.77;7.97;;;;;;;10.04;100.00;100303.16;5066765;28;20082;-69
2023/04/20 02:47:55;;;;;;;11.52;7.57;;;;;;;10.04;100.00;100297.16;5062625;28;20091;-69
2023/04/20 02:50:21;;;;;;;14.93;8.65;;;;;;;10.05;100.00;100294.41;5067912;28;20032;-69
2023/04/20 02:52:46;;;;;;;12.82;7.65;;;;;;;10.05;100.00;100297.00;5070342;28;20024;-69
2023/04/20 02:55:11;;;;;;;9.20;7.28;;;;;;;10.04;100.00;100294.53;5054835;28;20035;-69
2023/04/20 02:57:37;;;;;;;12.35;7.28;;;;;;;10.05;100.00;100291.78;5062775;28;20384;-69
2023/04/20 03:00:03;;;;;;;11.68;7.50;;;;;;;10.02;100.00;100281.66;5066788;28;20371;-69
2023/04/20 03:02:28;;;;;;;10.43;8.00;;;;;;;9.99;100.00;100287.97;5066547;28;20632;-69
2023/04/20 03:04:53;;;;;;;11.38;7.75;;;;;;;9.99;100.00;100287.16;5064466;28;20127;-69
2023/04/20 03:07:19;;;;;;;9.93;7.63;;;;;;;10.03;100.00;100290.31;5046129;28;21487;-69
2023/04/20 03:09:44;;;;;;;12.05;8.48;;;;;;;10.02;100.00;100291.25;5045616;28;20039;-69
2023/04/20 03:12:10;;;;;;;13.07;8.05;;;;;;;10.04;100.00;100289.34;5069946;28;20372;-69
2023/04/20 03:14:35;;;;;;;20.63;8.30;;;;;;;10.05;100.00;100296.19;5070452;28;20410;-69
2023/04/20 03:17:01;;;;;;;12.60;7.72;;;;;;;10.05;100.00;100291.78;5071153;28;20037;-69
2023/04/20 03:19:26;;;;;;;18.75;8.45;;;;;;;10.03;100.00;100291.13;5067150;28;20062;-69
2023/04/20 03:21:52;;;;;;;15.90;8.73;;;;;;;10.03;100.00;100293.72;5067900;28;20551;-69
2023/04/20 03:24:18;;;;;;;13.63;8.00;;;;;;;9.99;100.00;100294.97;5062331;28;20031;-69
2023/04/20 03:26:43;;;;;;;14.52;7.20;;;;;;;9.94;100.00;100290.19;5068887;28;20033;-69
2023/04/20 03:29:09;;;;;;;10.10;6.40;;;;;;;9.87;100.00;100281.34;5067167;28;20025;-69
2023/04/20 03:31:34;;;;;;;10.35;7.30;;;;;;;9.81;100.00;100283.72;5074648;28;20039;-69
2023/04/20 03:34:00;;;;;;;10.55;6.75;;;;;;;9.78;100.00;100290.03;5071368;28;20055;-69
2023/04/20 03:36:27;;;;;;;12.90;8.45;;;;;;;9.76;100.00;100296.34;5070373;28;20103;-69
2023/04/20 03:38:52;;;;;;;14.80;6.38;;;;;;;9.72;100.00;100285.38;5061795;28;20068;-69
2023/04/20 03:41:17;;;;;;;12.88;8.15;;;;;;;9.65;100.00;100295.53;5064131;28;20072;-69
2023/04/20 03:43:43;;;;;;;10.88;8.05;;;;;;;9.64;100.00;100287.88;5068118;28;20085;-69
2023/04/20 03:46:08;;;;;;;15.85;7.93;;;;;;;9.62;100.00;100295.00;5066226;28;20464;-69
2023/04/20 03:48:34;;;;;;;12.57;8.52;;;;;;;9.56;100.00;100291.19;5051577;28;20131;-69
2023/04/20 03:50:59;;;;;;;11.18;8.50;;;;;;;9.53;100.00;100291.47;5072540;28;20063;-69
2023/04/20 03:53:25;;;;;;;15.50;10.30;;;;;;;9.48;100.00;100287.66;5070656;28;20194;-69
2023/04/20 03:55:50;;;;;;;14.48;9.18;;;;;;;9.45;100.00;100293.97;5070173;28;20032;-69
2023/04/20 03:58:16;;;;;;;14.45;8.38;;;;;;;9.46;100.00;100293.00;5071237;28;20128;-69
2023/04/20 04:00:42;;;;;;;12.75;8.50;;;;;;;9.42;100.00;100286.47;5074543;28;20028;-69
2023/04/20 04:03:07;;;;;;;11.48;7.72;;;;;;;9.38;100.00;100292.09;5071500;28;20093;-69
2023/04/20 04:05:32;;;;;;;13.38;8.10;;;;;;;9.37;100.00;100296.47;5064679;28;20029;-69
2023/04/20 04:07:58;;;;;;;12.57;9.18;;;;;;;9.38;100.00;100290.31;5069803;28;20484;-69
2023/04/20 04:10:23;;;;;;;13.20;8.30;;;;;;;9.38;100.00;100303.31;5062382;28;20032;-69
2023/04/20 04:12:49;;;;;;;11.82;8.38;;;;;;;9.37;100.00;100304.28;5062010;28;20480;-69
2023/04/20 04:15:14;;;;;;;11.43;7.68;;;;;;;9.38;100.00;100303.31;5042514;28;20605;-69
2023/04/20 04:17:40;;;;;;;11.98;7.05;;;;;;;9.39;100.00;100311.94;5071137;28;20442;-69
2023/04/20 04:20:10;;;;;;;7.47;6.50;;;;;;;9.35;100.00;100314.00;5071436;28;20045;-69
2023/04/20 04:22:35;;;;;;;9.65;6.90;;;;;;;9.30;100.00;100306.59;5074064;28;20020;-69
2023/04/20 04:25:01;;;;;;;9.85;6.75;;;;;;;9.28;100.00;100307.69;5069519;28;20100;-69
2023/04/20 04:27:28;;;;;;;13.45;6.53;;;;;;;9.24;100.00;100301.97;5074285;28;20090;-69
2023/04/20 04:29:55;;;;;;;10.40;7.45;;;;;;;9.27;100.00;100311.25;5065289;28;20090;-69
2023/04/20 04:32:23;;;;;;;13.23;8.43;;;;;;;9.28;100.00;100305.09;5068693;28;20451;-69
2023/04/20 04:34:49;;;;;;;12.88;7.30;;;;;;;9.34;100.00;100308.94;5071944;28;20112;-70
2023/04/20 04:37:14;;;;;;;12.82;7.75;;;;;;;9.39;100.00;100301.53;5074676;28;20464;-70
2023/04/20 04:39:40;;;;;;;12.02;7.75;;;;;;;9.44;100.00;100318.34;5070792;28;20033;-69
2023/04/20 04:42:05;;;;;;;12.63;7.85;;;;;;;9.48;100.00;100322.28;5070954;28;20033;-69
2023/04/20 04:44:32;;;;;;;20.23;8.75;;;;;;;9.53;100.00;100324.47;5064890;28;20047;-69
2023/04/20 04:46:57;;;;;;;13.30;8.68;;;;;;;9.55;100.00;100320.75;5067207;28;20068;-69
2023/04/20 04:49:26;;;;;;;12.02;8.50;;;;;;;9.58;100.00;100320.47;5059802;28;20064;-69
2023/04/20 04:51:51;;;;;;;13.32;9.60;;;;;;;9.62;100.00;100318.41;5075306;28;20047;-69
2023/04/20 04:54:17;;;;;;;17.63;14.10;;;;;;;9.62;100.00;100323.63;5057933;28;20033;-69
2023/04/20 04:56:42;;;;;;;17.05;13.00;;;;;;;9.69;100.00;100332.50;5063132;28;20033;-69
2023/04/20 04:59:08;;;;;;;12.93;10.73;;;;;;;9.76;100.00;100330.16;5053983;28;20029;-69
2023/04/20 05:01:33;;;;;;;11.27;8.10;;;;;;;9.81;100.00;100326.16;5066797;28;20415;-70
2023/04/20 05:03:59;;;;;;;10.88;8.13;;;;;;;9.87;100.00;100329.97;5073730;28;20043;-70
2023/04/20 05:06:25;;;;;;;13.10;8.77;;;;;;;9.91;100.00;100331.34;5065784;28;20112;-70
2023/04/20 05:08:50;;;;;;;10.52;7.32;;;;;;;9.92;100.00;100332.97;5065514;28;20028;-69
2023/04/20 05:11:15;;;;;;;10.70;7.70;;;;;;;9.95;100.00;100336.09;5069160;28;20093;-70
2023/04/20 05:13:41;;;;;;;9.82;8.00;;;;;;;10.00;100.00;100330.44;5061968;28;20042;-70
2023/04/20 05:16:07;;;;;;;11.82;7.80;;;;;;;10.05;100.00;100335.22;5065340;28;20037;-69
2023/04/20 05:18:32;;;;;;;13.00;7.13;;;;;;;10.11;100.00;100337.25;5068561;28;20020;-70
2023/04/20 05:20:58;;;;;;;8.32;6.10;;;;;;;10.12;100.00;100339.72;5065323;28;20169;-69
2023/04/20 05:23:23;;;;;;;11.57;7.03;;;;;;;10.21;100.00;100338.88;5063968;28;20035;-70
2023/04/20 05:25:49;;;;;;;6.85;6.15;;;;;;;10.22;100.00;100337.91;5065887;28;20507;-70
2023/04/20 05:28:14;;;;;;;7.75;5.93;;;;;;;10.29;100.00;100340.75;5072185;28;20028;-69
2023/04/20 05:30:40;;;;;;;11.82;6.43;;;;;;;10.36;100.00;100344.44;5065284;28;20056;-69
2023/04/20 05:33:05;;;;;;;11.10;7.30;;;;;;;10.46;100.00;100344.34;5065355;28;20488;-69
2023/04/20 05:35:30;;;;;;;13.63;8.40;;;;;;;10.55;100.00;100346.91;5060771;28;20029;-69
2023/04/20 05:37:59;;;;;;;9.50;7.28;;;;;;;10.58;100.00;100349.22;5067476;28;20040;-69
2023/04/20 05:40:25;;;;;;;13.95;8.70;;;;;;;10.68;100.00;100351.75;5067517;28;20066;-69
2023/04/20 05:42:50;;;;;;;9.75;8.02;;;;;;;10.76;100.00;100349.22;5060355;28;20049;-69
2023/04/20 05:45:16;;;;;;;10.05;5.22;;;;;;;10.50;100.00;100361.31;5043099;28;20079;-69
2023/04/20 05:47:41;;;;;;;11.73;6.28;;;;;;;10.55;100.00;100366.91;5064856;28;20383;-69
2023/04/20 05:50:07;;;;;;;8.85;5.90;;;;;;;10.71;100.00;100361.88;5061678;28;20048;-69
2023/04/20 05:52:33;;;;;;;8.75;4.80;;;;;;;10.78;100.00;100349.91;5031281;28;20028;-69
2023/04/20 05:55:01;;;;;;;5.07;3.70;;;;;;;10.59;100.00;100357.84;5065800;28;20029;-69
2023/04/20 05:57:26;;;;;;;3.50;2.75;;;;;;;10.51;100.00;100365.56;5065072;28;20036;-69
2023/04/20 05:59:54;;;;;;;6.55;2.95;;;;;;;10.59;100.00;100355.25;5062741;28;20078;-70
2023/04/20 06:02:19;;;;;;;5.57;3.67;;;;;;;10.63;100.00;100354.81;5069357;28;20034;-70
2023/04/20 06:04:45;;;;;;;3.72;1.90;;;;;;;10.66;100.00;100361.50;5064088;28;20040;-70
2023/04/20 06:07:10;;;;;;;5.00;4.10;;;;;;;10.79;100.00;100361.16;5065595;28;20517;-69
2023/04/20 06:09:35;;;;;;;11.48;5.88;;;;;;;11.10;100.00;100367.59;5068951;28;20111;-69
2023/04/20 06:12:01;;;;;;;6.88;4.90;;;;;;;11.20;100.00;100367.53;5068888;28;20739;-69
2023/04/20 06:14:27;;;;;;;7.90;4.78;;;;;;;11.33;100.00;100356.72;5064226;28;20537;-69
2023/04/20 06:16:52;;;;;;;5.18;4.32;;;;;;;11.39;100.00;100366.50;5064931;28;20047;-69
2023/04/20 06:19:17;;;;;;;8.05;4.60;;;;;;;11.35;100.00;100363.38;5065180;28;20082;-69
2023/04/20 06:21:43;;;;;;;2.88;2.63;;;;;;;11.27;100.00;100358.13;5067207;28;20032;-69
2023/04/20 06:24:08;;;;;;;3.85;3.08;;;;;;;11.27;100.00;100372.00;5061545;28;20028;-70
2023/04/20 06:26:34;;;;;;;4.57;3.45;;;;;;;11.26;100.00;100366.94;5069213;28;20028;-70
2023/04/20 06:28:59;;;;;;;3.65;2.97;;;;;;;11.24;100.00;100368.88;5063098;28;20037;-70
2023/04/20 06:31:25;;;;;;;5.32;2.75;;;;;;;11.23;100.00;100372.44;5072509;28;20423;-70
2023/04/20 06:33:50;;;;;;;7.85;4.53;;;;;;;11.25;100.00;100371.31;5061619;28;20037;-69
2023/04/20 06:36:15;;;;;;;6.07;3.88;;;;;;;11.25;100.00;100373.13;5068265;28;20024;-69
2023/04/20 06:38:41;;;;;;;4.68;3.47;;;;;;;11.20;100.00;100377.97;5059864;28;20032;-70
2023/04/20 06:41:06;;;;;;;6.60;3.47;;;;;;;11.21;100.00;100384.81;5065944;28;20029;-70
2023/04/20 06:43:32;;;;;;;12.18;4.30;;;;;;;11.16;100.00;100382.66;5068719;28;20135;-69
2023/04/20 06:45:57;;;;;;;7.00;4.00;;;;;;;11.16;100.00;100381.84;5065173;28;20535;-69
2023/04/20 06:48:22;;;;;;;7.78;3.40;;;;;;;11.15;100.00;100390.63;5072206;28;20032;-69
2023/04/20 06:50:49;;;;;;;10.20;4.05;;;;;;;11.12;100.00;100391.75;5058119;28;20101;-70
2023/04/20 06:53:15;;;;;;;5.85;4.22;;;;;;;11.11;100.00;100390.09;5065476;28;20044;-69
2023/04/20 06:55:41;;;;;;;4.88;3.70;;;;;;;11.09;100.00;100393.84;5061391;28;20029;-69
2023/04/20 06:58:06;;;;;;;5.05;3.63;;;;;;;10.82;100.00;100392.94;5064484;28;20032;-68
2023/04/20 07:00:31;;;;;;;2.53;2.15;;;;;;;10.61;100.00;100398.41;5065625;28;20109;-68
2023/04/20 07:02:57;;;;;;;3.10;2.45;;;;;;;10.27;100.00;100399.97;5069164;28;20476;-69
2023/04/20 07:05:22;;;;;;;3.05;2.55;;;;;;;10.24;100.00;100390.66;5066711;28;20051;-68
2023/04/20 07:07:48;;;;;;;5.72;3.22;;;;;;;10.27;100.00;100394.78;5047127;28;20081;-69
2023/04/20 07:10:15;;;;;;;3.88;3.47;;;;;;;10.27;100.00;100397.38;5060368;28;20561;-69
2023/04/20 07:12:41;;;;;;;5.25;2.90;;;;;;;10.09;100.00;100392.06;5071512;28;20028;-69
2023/04/20 07:15:07;;;;;;;3.17;2.88;;;;;;;9.92;100.00;100398.03;5041315;28;20021;-69
2023/04/20 07:17:34;;;;;;;5.55;3.20;;;;;;;9.80;100.00;100401.75;5068737;28;20028;-69
2023/04/20 07:20:06;;;;;;;3.15;2.70;;;;;;;9.75;100.00;100404.78;5069220;28;20044;-69
2023/04/20 07:22:32;;;;;;;4.38;3.08;;;;;;;9.71;100.00;100400.00;5069941;28;20036;-69
2023/04/20 07:25:00;;;;;;;4.57;3.00;;;;;;;9.63;100.00;100401.50;5071271;28;20149;-69
2023/04/20 07:27:26;;;;;;;3.55;2.78;;;;;;;9.62;100.00;100404.25;5067561;28;20058;-69
2023/04/20 07:29:52;;;;;;;3.35;2.35;;;;;;;9.58;100.00;100411.50;5057954;28;20055;-69
2023/04/20 07:32:17;;;;;;;3.92;3.00;;;;;;;9.60;100.00;100419.19;5055795;28;20123;-69
2023/04/20 07:34:43;;;;;;;4.15;2.70;;;;;;;9.63;100.00;100405.91;5056691;28;20074;-69
2023/04/20 07:37:08;;;;;;;4.47;3.20;;;;;;;9.61;100.00;100415.63;5062389;28;20036;-69
2023/04/20 07:39:33;;;;;;;3.30;2.63;;;;;;;9.57;100.00;100422.88;5071098;28;20032;-69
2023/04/20 07:42:02;;;;;;;6.00;3.60;;;;;;;9.56;100.00;100425.63;5067892;28;20086;-69
2023/04/20 07:44:27;;;;;;;3.53;2.85;;;;;;;9.59;100.00;100430.53;5059200;28;20107;-69
2023/04/20 07:46:54;;;;;;;4.63;2.85;;;;;;;9.57;100.00;100429.88;5063758;28;20430;-69
2023/04/20 07:49:19;;;;;;;4.80;3.25;;;;;;;9.55;100.00;100434.38;5060892;28;20033;-69
2023/04/20 07:51:45;;;;;;;6.57;3.75;;;;;;;9.61;100.00;100429.44;5061408;28;20095;-69
2023/04/20 07:54:10;;;;;;;5.60;3.47;;;;;;;9.68;100.00;100434.91;5067582;28;20115;-69
2023/04/20 07:56:36;;;;;;;3.40;3.08;;;;;;;9.64;100.00;100434.38;5062420;28;20025;-68
2023/04/20 07:59:01;;;;;;;5.30;3.53;;;;;;;9.71;100.00;100433.81;5065824;28;20029;-69
2023/04/20 08:01:27;;;;;;;5.25;3.90;;;;;;;9.80;100.00;100433.00;5066050;28;20498;-68
2023/04/20 08:03:54;;;;;;;6.05;4.18;;;;;;;9.91;100.00;100435.44;5065175;28;20024;-69
2023/04/20 08:06:20;;;;;;;4.63;2.90;;;;;;;9.89;100.00;100434.75;5063738;28;20488;-68
2023/04/20 08:08:45;;;;;;;4.03;3.45;;;;;;;9.96;100.00;100435.81;5066823;28;20036;-68
2023/04/20 08:11:11;;;;;;;4.93;4.22;;;;;;;9.98;100.00;100437.31;5068494;28;20368;-68
2023/04/20 08:13:37;;;;;;;6.07;4.53;;;;;;;10.06;100.00;100434.00;5069171;28;20029;-69
2023/04/20 08:16:02;;;;;;;6.57;4.38;;;;;;;10.07;100.00;100440.84;5068466;28;20079;-68
2023/04/20 08:18:29;;;;;;;7.70;4.90;;;;;;;10.11;100.00;100437.00;5068680;28;20113;-69
2023/04/20 08:20:55;;;;;;;4.72;3.72;;;;;;;10.11;100.00;100442.22;5069003;28;20031;-68
2023/04/20 08:23:26;;;;;;;5.43;3.95;;;;;;;10.02;100.00;100445.66;5067562;28;20033;-68
2023/04/20 08:25:55;;;;;;;4.78;2.35;;;;;;;9.87;100.00;100429.69;5067208;28;20112;-68
2023/04/20 08:28:23;;;;;;;6.60;3.22;;;;;;;9.93;100.00;100433.47;5061777;28;20040;-68
2023/04/20 08:30:50;;;;;;;5.93;2.88;;;;;;;9.93;100.00;100433.47;5068711;28;20031;-70
2023/04/20 08:33:16;;;;;;;4.03;2.95;;;;;;;10.07;100.00;100435.63;5050912;28;20037;-68
2023/04/20 08:35:42;;;;;;;5.47;2.65;;;;;;;9.94;100.00;100432.53;5067836;28;20029;-68
2023/04/20 08:38:07;;;;;;;2.85;2.50;;;;;;;9.97;100.00;100424.44;5064154;28;20094;-68
2023/04/20 08:40:35;;;;;;;4.95;2.20;;;;;;;10.06;100.00;100423.59;5059416;28;20037;-68
2023/04/20 08:43:01;;;;;;;2.70;1.80;;;;;;;10.15;100.00;100433.16;5059586;28;20475;-68
2023/04/20 08:45:27;;;;;;;4.57;3.30;;;;;;;10.21;100.00;100422.19;5057686;28;20120;-68
2023/04/20 08:47:53;;;;;;;4.68;2.63;;;;;;;10.41;100.00;100429.91;5063375;28;20052;-68
2023/04/20 08:50:19;;;;;;;3.28;2.47;;;;;;;10.53;100.00;100429.59;5060826;28;20036;-68
2023/04/20 08:52:45;;;;;;;3.90;3.08;;;;;;;11.22;100.00;100428.19;5059563;28;20032;-68
2023/04/20 08:55:17;;;;;;;5.50;3.30;;;;;;;11.35;100.00;100438.22;5064570;28;20036;-69
2023/04/20 08:57:43;;;;;;;6.95;2.85;;;;;;;11.47;100.00;100437.84;5062728;28;20033;-68
2023/04/20 09:00:10;;;;;;;5.82;1.75;;;;;;;11.41;100.00;100443.66;5063334;28;20083;-68
2023/04/20 09:02:46;;;;;;;4.50;2.50;;;;;;;11.24;100.00;100447.94;5064310;28;20029;-68
2023/04/20 09:05:12;;;;;;;3.97;2.45;;;;;;;11.24;100.00;100452.31;5064711;28;20118;-69
2023/04/20 09:07:37;;;;;;;2.75;2.13;;;;;;;11.07;100.00;100460.94;5065846;28;20440;-68
2023/04/20 09:10:03;;;;;;;5.15;1.83;;;;;;;11.00;100.00;100457.28;5064546;28;20029;-69
2023/04/20 09:12:39;;;;;;;3.42;1.88;;;;;;;10.93;100.00;100452.66;5063607;28;20028;-68
2023/04/20 09:15:06;;;;;;;3.00;1.60;;;;;;;11.03;100.00;100459.59;5063836;28;20094;-68
2023/04/20 09:17:35;;;;;;;3.90;1.85;;;;;;;11.09;100.00;100457.22;5064041;28;20028;-69
2023/04/20 09:20:03;;;;;;;1.92;1.20;;;;;;;11.15;100.00;100455.81;5066178;28;20043;-68
2023/04/20 09:22:34;;;;;;;3.83;2.00;;;;;;;11.08;100.00;100462.59;5064414;28;20043;-69
2023/04/20 09:25:10;;;;;;;3.60;1.60;;;;;;;11.00;100.00;100459.91;5061256;28;20433;-69
2023/04/20 09:27:36;;;;;;;2.00;1.60;;;;;;;11.05;100.00;100457.66;5065822;28;20392;-69
2023/04/20 09:30:02;;;;;;;4.28;1.35;;;;;;;11.11;100.00;100457.09;5066864;28;20039;-69
2023/04/20 09:32:28;;;;;;;1.65;1.17;;;;;;;11.16;100.00;100460.06;5064891;28;20503;-69
2023/04/20 09:34:54;;;;;;;2.60;1.63;;;;;;;11.19;100.00;100465.00;5065499;28;20664;-69
2023/04/20 09:37:21;;;;;;;3.58;1.50;;;;;;;11.13;100.00;100460.38;5061645;28;20495;-69
2023/04/20 09:39:47;;;;;;;7.40;2.00;;;;;;;11.28;100.00;100466.72;5064123;28;20067;-68
2023/04/20 09:42:14;;;;;;;4.63;2.33;;;;;;;11.26;100.00;100471.25;5069130;28;20467;-69
2023/04/20 09:44:39;;;;;;;2.72;2.13;;;;;;;11.22;100.00;100468.13;5068242;28;20078;-68
2023/04/20 09:47:07;;;;;;;2.97;2.33;;;;;;;11.10;100.00;100471.91;5066250;28;20024;-70
2023/04/20 09:49:32;;;;;;;4.05;1.92;;;;;;;11.07;100.00;100469.59;5059392;28;20040;-70
2023/04/20 09:52:02;;;;;;;3.47;2.30;;;;;;;11.29;100.00;100468.34;5067424;28;20055;-67
2023/04/20 09:54:28;;;;;;;3.58;2.03;;;;;;;11.54;100.00;100464.97;5065724;28;20330;-67
2023/04/20 09:56:53;;;;;;;4.32;2.38;;;;;;;11.69;100.00;100474.88;5066943;28;20039;-67
2023/04/20 09:59:20;;;;;;;3.17;2.10;;;;;;;11.69;100.00;100480.91;5067847;28;20036;-67
2023/04/20 10:01:46;;;;;;;4.32;2.45;;;;;;;11.61;100.00;100484.28;5062762;28;20043;-67
2023/04/20 10:04:13;;;;;;;4.10;1.98;;;;;;;11.48;100.00;100486.44;5059372;28;20029;-67
2023/04/20 10:06:50;;;;;;;3.20;2.35;;;;;;;11.37;100.00;100493.66;5057597;28;20041;-68
2023/04/20 10:09:21;;;;;;;3.25;2.45;;;;;;;11.13;100.00;100491.66;5051380;28;20041;-67
2023/04/20 10:11:47;;;;;;;10.32;3.20;;;;;;;10.91;100.00;100495.47;5064907;28;20070;-66
2023/04/20 10:14:16;;;;;;;3.42;2.92;;;;;;;10.70;100.00;100498.34;5057345;28;20033;-66
2023/04/20 10:16:42;;;;;;;6.85;4.57;;;;;;;10.66;100.00;100509.19;5068094;28;20040;-67
2023/04/20 10:19:07;;;;;;;6.40;5.13;;;;;;;10.73;100.00;100515.47;5056975;28;20465;-66
2023/04/20 10:21:47;;;;;;;6.70;5.32;;;;;;;10.83;100.00;100511.06;5071310;28;20032;-67
2023/04/20 10:24:14;;;;;;;12.93;5.10;;;;;;;10.85;100.00;100512.53;5065846;28;20028;-67
2023/04/20 10:26:44;;;;;;;11.38;6.35;;;;;;;10.91;100.00;100511.94;5066537;28;20033;-68
2023/04/20 10:29:10;;;;;;;17.52;6.70;;;;;;;11.00;100.00;100510.25;5071281;28;20488;-67
2023/04/20 10:31:40;;;;;;;18.50;7.88;;;;;;;11.00;100.00;100517.25;5074019;28;20365;-68
2023/04/20 10:34:06;;;;;;;10.07;6.55;;;;;;;11.08;100.00;100531.19;5063868;28;20426;-67
2023/04/20 10:36:35;;;;;;;10.38;7.20;;;;;;;11.20;100.00;100534.44;5072916;28;20461;-67
2023/04/20 10:39:15;;;;;;;9.70;6.45;;;;;;;11.14;100.00;100527.19;5068087;28;20032;-67
2023/04/20 10:42:05;;;;;;;10.15;6.43;;;;;;;11.22;100.00;100527.28;5066915;28;20583;-67
2023/04/20 10:44:33;;;;;;;10.93;6.70;;;;;;;11.20;100.00;100526.59;5067439;28;20020;-67
2023/04/20 10:46:58;;;;;;;9.77;6.20;;;;;;;11.12;100.00;100526.53;5066757;28;20097;-67
2023/04/20 10:49:28;;;;;;;10.38;5.95;;;;;;;11.01;100.00;100530.13;5065697;28;20504;-67
2023/04/20 10:51:54;;;;;;;6.72;5.03;;;;;;;10.73;100.00;100525.91;5063467;28;20445;-67
2023/04/20 10:54:20;;;;;;;6.95;5.28;;;;;;;10.57;100.00;100519.50;5062496;28;20108;-68
2023/04/20 10:56:47;;;;;;;5.55;3.95;;;;;;;10.38;100.00;100508.34;5070285;28;20111;-68
2023/04/20 10:59:18;;;;;;;6.97;4.80;;;;;;;10.19;100.00;100496.19;5066494;28;20135;-68
2023/04/20 11:01:45;;;;;;;26.63;13.00;;;;;;;10.16;100.00;100502.47;5066854;28;20032;-69
2023/04/20 11:04:11;;;;;;;10.85;6.95;;;;;;;10.10;100.00;100512.63;5066122;28;20431;-68
2023/04/20 11:06:39;;;;;;;12.25;6.00;;;;;;;10.09;100.00;100516.19;5063737;28;20029;-68
2023/04/20 11:09:25;;;;;;;10.93;6.45;;;;;;;10.15;100.00;100513.84;5067486;28;20028;-68
2023/04/20 11:11:57;;;;;;;7.72;5.90;;;;;;;10.14;100.00;100508.78;5063673;28;20119;-69